sensor_id;sensor_type;location;lat;lon;timestamp;temperature;humidity
4820;DHT22;2424;49.696;6.630;2022-08-01T00:01:52;22.80;99.90
4820;DHT22;2424;49.696;6.630;2022-08-01T00:07:15;22.70;99.90
4820;DHT22;2424;49.696;6.630;2022-08-01T00:12:37;22.70;99.90
4820;DHT22;2424;49.696;6.630;2022-08-01T00:17:59;22.70;99.90
4820;DHT22;2424;49.696;6.630;2022-08-01T00:23:23;22.50;99.90
4820;DHT22;2424;49.696;6.630;2022-08-01T00:28:45;22.40;99.90
4820;DHT22;2424;49.696;6.630;2022-08-01T00:34:06;22.20;99.90
4820;DHT22;2424;49.696;6.630;2022-08-01T00:39:30;22.20;99.90
4820;DHT22;2424;49.696;6.630;2022-08-01T00:44:53;22.00;99.90
4820;DHT22;2424;49.696;6.630;2022-08-01T00:50:15;21.90;99.90
4820;DHT22;2424;49.696;6.630;2022-08-01T00:55:38;21.80;99.90
4820;DHT22;2424;49.696;6.630;2022-08-01T01:01:00;21.80;99.90
4820;DHT22;2424;49.696;6.630;2022-08-01T01:06:27;21.70;99.90
4820;DHT22;2424;49.696;6.630;2022-08-01T01:12:02;21.60;99.90
4820;DHT22;2424;49.696;6.630;2022-08-01T01:17:32;21.60;99.90
4820;DHT22;2424;49.696;6.630;2022-08-01T01:28:57;21.40;99.90
4820;DHT22;2424;49.696;6.630;2022-08-01T01:34:22;21.40;99.90
4820;DHT22;2424;49.696;6.630;2022-08-01T01:39:46;21.30;99.90
4820;DHT22;2424;49.696;6.630;2022-08-01T01:45:12;21.20;99.90
4820;DHT22;2424;49.696;6.630;2022-08-01T01:50:35;21.20;99.90
4820;DHT22;2424;49.696;6.630;2022-08-01T01:56:01;21.10;99.90
4820;DHT22;2424;49.696;6.630;2022-08-01T02:01:28;20.90;99.90
4820;DHT22;2424;49.696;6.630;2022-08-01T02:06:51;20.80;99.90
4820;DHT22;2424;49.696;6.630;2022-08-01T02:12:14;20.80;99.90
4820;DHT22;2424;49.696;6.630;2022-08-01T02:17:43;20.70;99.90
4820;DHT22;2424;49.696;6.630;2022-08-01T02:23:11;20.60;99.90
4820;DHT22;2424;49.696;6.630;2022-08-01T02:28:38;20.50;99.90
4820;DHT22;2424;49.696;6.630;2022-08-01T02:34:06;20.50;99.90
4820;DHT22;2424;49.696;6.630;2022-08-01T02:39:31;20.20;99.90
4820;DHT22;2424;49.696;6.630;2022-08-01T02:44:54;20.20;99.90
4820;DHT22;2424;49.696;6.630;2022-08-01T02:50:18;20.10;99.90
4820;DHT22;2424;49.696;6.630;2022-08-01T02:55:41;20.10;99.90
4820;DHT22;2424;49.696;6.630;2022-08-01T03:01:06;20.10;99.90
4820;DHT22;2424;49.696;6.630;2022-08-01T03:06:30;20.00;99.90
4820;DHT22;2424;49.696;6.630;2022-08-01T03:11:53;20.00;99.90
4820;DHT22;2424;49.696;6.630;2022-08-01T03:17:18;19.90;99.90
4820;DHT22;2424;49.696;6.630;2022-08-01T03:22:45;19.90;99.90
4820;DHT22;2424;49.696;6.630;2022-08-01T03:28:10;19.90;99.90
4820;DHT22;2424;49.696;6.630;2022-08-01T03:33:33;19.80;99.90
4820;DHT22;2424;49.696;6.630;2022-08-01T03:38:59;19.70;99.90
4820;DHT22;2424;49.696;6.630;2022-08-01T03:44:25;19.60;99.90
4820;DHT22;2424;49.696;6.630;2022-08-01T03:49:48;19.50;99.90
4820;DHT22;2424;49.696;6.630;2022-08-01T03:55:13;19.50;99.90
4820;DHT22;2424;49.696;6.630;2022-08-01T04:00:38;19.40;99.90
4820;DHT22;2424;49.696;6.630;2022-08-01T04:06:03;19.30;99.90
4820;DHT22;2424;49.696;6.630;2022-08-01T04:11:27;19.20;99.90
4820;DHT22;2424;49.696;6.630;2022-08-01T04:16:49;19.10;99.90
4820;DHT22;2424;49.696;6.630;2022-08-01T04:22:14;19.10;99.90
4820;DHT22;2424;49.696;6.630;2022-08-01T04:27:38;19.10;99.90
4820;DHT22;2424;49.696;6.630;2022-08-01T04:33:04;19.10;99.90
4820;DHT22;2424;49.696;6.630;2022-08-01T04:38:28;19.10;99.90
4820;DHT22;2424;49.696;6.630;2022-08-01T04:43:53;19.00;99.90
4820;DHT22;2424;49.696;6.630;2022-08-01T04:49:16;19.00;99.90
4820;DHT22;2424;49.696;6.630;2022-08-01T04:54:38;19.00;99.90
4820;DHT22;2424;49.696;6.630;2022-08-01T05:00:02;19.00;99.90
4820;DHT22;2424;49.696;6.630;2022-08-01T05:05:24;19.10;99.90
4820;DHT22;2424;49.696;6.630;2022-08-01T05:10:47;19.10;99.90
4820;DHT22;2424;49.696;6.630;2022-08-01T05:16:10;19.10;99.90
4820;DHT22;2424;49.696;6.630;2022-08-01T05:21:32;19.20;99.90
4820;DHT22;2424;49.696;6.630;2022-08-01T05:26:54;19.40;99.90
4820;DHT22;2424;49.696;6.630;2022-08-01T05:32:18;19.40;99.90
4820;DHT22;2424;49.696;6.630;2022-08-01T05:37:40;19.50;99.90
4820;DHT22;2424;49.696;6.630;2022-08-01T05:43:02;19.50;99.90
4820;DHT22;2424;49.696;6.630;2022-08-01T05:48:25;19.60;99.90
4820;DHT22;2424;49.696;6.630;2022-08-01T05:53:48;19.60;99.90
4820;DHT22;2424;49.696;6.630;2022-08-01T05:59:10;19.60;99.90
4820;DHT22;2424;49.696;6.630;2022-08-01T06:04:33;19.70;99.90
4820;DHT22;2424;49.696;6.630;2022-08-01T06:09:55;19.60;99.90
4820;DHT22;2424;49.696;6.630;2022-08-01T06:15:17;19.80;99.90
4820;DHT22;2424;49.696;6.630;2022-08-01T06:20:41;19.80;99.90
4820;DHT22;2424;49.696;6.630;2022-08-01T06:26:03;19.80;99.90
4820;DHT22;2424;49.696;6.630;2022-08-01T06:31:25;19.70;99.90
4820;DHT22;2424;49.696;6.630;2022-08-01T06:36:48;19.90;99.90
4820;DHT22;2424;49.696;6.630;2022-08-01T06:42:10;19.80;99.90
4820;DHT22;2424;49.696;6.630;2022-08-01T06:47:32;19.80;99.90
4820;DHT22;2424;49.696;6.630;2022-08-01T06:52:56;19.90;99.90
4820;DHT22;2424;49.696;6.630;2022-08-01T06:58:18;20.00;99.90
4820;DHT22;2424;49.696;6.630;2022-08-01T07:03:40;20.10;99.90
4820;DHT22;2424;49.696;6.630;2022-08-01T07:09:03;20.10;99.90
4820;DHT22;2424;49.696;6.630;2022-08-01T07:14:25;20.10;99.90
4820;DHT22;2424;49.696;6.630;2022-08-01T07:19:47;20.10;99.90
4820;DHT22;2424;49.696;6.630;2022-08-01T07:25:11;20.10;99.90
4820;DHT22;2424;49.696;6.630;2022-08-01T07:30:33;20.30;99.90
4820;DHT22;2424;49.696;6.630;2022-08-01T07:35:55;20.40;99.90
4820;DHT22;2424;49.696;6.630;2022-08-01T07:41:18;20.40;99.90
4820;DHT22;2424;49.696;6.630;2022-08-01T07:46:40;20.30;99.90
4820;DHT22;2424;49.696;6.630;2022-08-01T07:52:03;20.50;99.90
4820;DHT22;2424;49.696;6.630;2022-08-01T07:57:26;20.60;99.90
4820;DHT22;2424;49.696;6.630;2022-08-01T08:02:48;20.60;99.90
4820;DHT22;2424;49.696;6.630;2022-08-01T08:08:10;20.80;99.90
4820;DHT22;2424;49.696;6.630;2022-08-01T08:13:35;21.10;99.90
4820;DHT22;2424;49.696;6.630;2022-08-01T08:18:57;21.10;99.90
4820;DHT22;2424;49.696;6.630;2022-08-01T08:24:19;21.20;99.90
4820;DHT22;2424;49.696;6.630;2022-08-01T08:29:43;21.30;99.90
4820;DHT22;2424;49.696;6.630;2022-08-01T08:35:06;21.40;99.90
4820;DHT22;2424;49.696;6.630;2022-08-01T08:40:30;21.50;99.90
4820;DHT22;2424;49.696;6.630;2022-08-01T08:45:53;21.60;99.90
4820;DHT22;2424;49.696;6.630;2022-08-01T08:51:17;21.70;99.90
4820;DHT22;2424;49.696;6.630;2022-08-01T08:56:40;21.80;99.90
4820;DHT22;2424;49.696;6.630;2022-08-01T09:02:04;21.90;99.90
4820;DHT22;2424;49.696;6.630;2022-08-01T09:07:26;22.30;99.90
4820;DHT22;2424;49.696;6.630;2022-08-01T09:13:08;22.40;99.90
4820;DHT22;2424;49.696;6.630;2022-08-01T09:18:35;22.50;99.90
4820;DHT22;2424;49.696;6.630;2022-08-01T09:23:57;22.30;99.90
4820;DHT22;2424;49.696;6.630;2022-08-01T09:29:21;22.20;99.90
4820;DHT22;2424;49.696;6.630;2022-08-01T09:34:45;22.10;99.90
4820;DHT22;2424;49.696;6.630;2022-08-01T09:40:09;22.20;99.90
4820;DHT22;2424;49.696;6.630;2022-08-01T09:45:31;22.30;99.90
4820;DHT22;2424;49.696;6.630;2022-08-01T09:50:56;22.30;99.90
4820;DHT22;2424;49.696;6.630;2022-08-01T09:56:19;22.40;99.90
4820;DHT22;2424;49.696;6.630;2022-08-01T10:01:44;22.20;99.90
4820;DHT22;2424;49.696;6.630;2022-08-01T10:07:07;22.20;99.90
4820;DHT22;2424;49.696;6.630;2022-08-01T10:12:32;22.40;99.90
4820;DHT22;2424;49.696;6.630;2022-08-01T10:17:56;22.40;99.90
4820;DHT22;2424;49.696;6.630;2022-08-01T10:23:20;22.30;99.90
4820;DHT22;2424;49.696;6.630;2022-08-01T10:28:44;22.30;99.90
4820;DHT22;2424;49.696;6.630;2022-08-01T10:34:09;22.60;99.90
4820;DHT22;2424;49.696;6.630;2022-08-01T10:39:34;22.70;99.90
4820;DHT22;2424;49.696;6.630;2022-08-01T10:44:57;22.60;99.90
4820;DHT22;2424;49.696;6.630;2022-08-01T10:50:24;22.80;99.90
4820;DHT22;2424;49.696;6.630;2022-08-01T10:55:52;22.90;99.90
4820;DHT22;2424;49.696;6.630;2022-08-01T11:01:22;23.10;99.90
4820;DHT22;2424;49.696;6.630;2022-08-01T11:06:54;23.10;99.90
4820;DHT22;2424;49.696;6.630;2022-08-01T11:12:38;23.20;99.90
4820;DHT22;2424;49.696;6.630;2022-08-01T11:18:02;23.40;99.90
4820;DHT22;2424;49.696;6.630;2022-08-01T11:23:26;23.30;99.90
4820;DHT22;2424;49.696;6.630;2022-08-01T11:29:16;23.40;99.90
4820;DHT22;2424;49.696;6.630;2022-08-01T11:34:54;23.80;99.90
4820;DHT22;2424;49.696;6.630;2022-08-01T11:40:18;23.90;99.90
4820;DHT22;2424;49.696;6.630;2022-08-01T11:45:49;23.90;99.90
4820;DHT22;2424;49.696;6.630;2022-08-01T11:51:15;24.00;99.90
4820;DHT22;2424;49.696;6.630;2022-08-01T11:56:38;23.80;99.90
4820;DHT22;2424;49.696;6.630;2022-08-01T12:02:02;23.90;99.90
4820;DHT22;2424;49.696;6.630;2022-08-01T12:07:25;23.80;99.90
4820;DHT22;2424;49.696;6.630;2022-08-01T12:12:48;23.90;99.90
4820;DHT22;2424;49.696;6.630;2022-08-01T12:18:12;24.00;99.90
4820;DHT22;2424;49.696;6.630;2022-08-01T12:23:34;24.10;99.90
4820;DHT22;2424;49.696;6.630;2022-08-01T12:28:56;24.20;99.90
4820;DHT22;2424;49.696;6.630;2022-08-01T12:34:29;24.20;99.90
4820;DHT22;2424;49.696;6.630;2022-08-01T12:39:55;24.50;99.90
4820;DHT22;2424;49.696;6.630;2022-08-01T12:45:19;25.00;99.90
4820;DHT22;2424;49.696;6.630;2022-08-01T12:50:45;24.90;99.90
4820;DHT22;2424;49.696;6.630;2022-08-01T12:56:09;25.00;99.90
4820;DHT22;2424;49.696;6.630;2022-08-01T13:01:31;24.90;99.90
4820;DHT22;2424;49.696;6.630;2022-08-01T13:06:55;25.00;99.90
4820;DHT22;2424;49.696;6.630;2022-08-01T13:12:17;25.30;99.90
4820;DHT22;2424;49.696;6.630;2022-08-01T13:17:39;25.30;99.90
4820;DHT22;2424;49.696;6.630;2022-08-01T13:23:13;25.40;99.90
4820;DHT22;2424;49.696;6.630;2022-08-01T13:28:35;25.60;99.90
4820;DHT22;2424;49.696;6.630;2022-08-01T13:33:59;25.70;99.90
4820;DHT22;2424;49.696;6.630;2022-08-01T13:39:22;25.60;99.90
4820;DHT22;2424;49.696;6.630;2022-08-01T13:45:04;26.00;99.90
4820;DHT22;2424;49.696;6.630;2022-08-01T13:50:27;26.20;99.90
4820;DHT22;2424;49.696;6.630;2022-08-01T13:55:51;26.00;99.90
4820;DHT22;2424;49.696;6.630;2022-08-01T14:01:13;26.10;99.90
4820;DHT22;2424;49.696;6.630;2022-08-01T14:06:35;26.00;99.90
4820;DHT22;2424;49.696;6.630;2022-08-01T14:11:59;26.60;99.90
4820;DHT22;2424;49.696;6.630;2022-08-01T14:17:21;27.20;99.90
4820;DHT22;2424;49.696;6.630;2022-08-01T14:22:43;27.50;99.90
4820;DHT22;2424;49.696;6.630;2022-08-01T14:28:06;27.00;99.90
4820;DHT22;2424;49.696;6.630;2022-08-01T14:33:29;26.70;99.90
4820;DHT22;2424;49.696;6.630;2022-08-01T14:38:51;26.30;99.90
4820;DHT22;2424;49.696;6.630;2022-08-01T14:44:14;26.20;99.90
4820;DHT22;2424;49.696;6.630;2022-08-01T14:49:36;25.90;99.90
4820;DHT22;2424;49.696;6.630;2022-08-01T14:54:58;25.70;99.90
4820;DHT22;2424;49.696;6.630;2022-08-01T15:00:22;25.90;99.90
4820;DHT22;2424;49.696;6.630;2022-08-01T15:05:44;25.70;99.90
4820;DHT22;2424;49.696;6.630;2022-08-01T15:11:06;25.60;99.90
4820;DHT22;2424;49.696;6.630;2022-08-01T15:16:30;25.70;99.90
4820;DHT22;2424;49.696;6.630;2022-08-01T15:21:52;25.70;99.90
4820;DHT22;2424;49.696;6.630;2022-08-01T15:27:14;26.00;99.90
4820;DHT22;2424;49.696;6.630;2022-08-01T15:32:38;25.90;99.90
4820;DHT22;2424;49.696;6.630;2022-08-01T15:38:00;25.90;99.90
4820;DHT22;2424;49.696;6.630;2022-08-01T15:43:22;25.90;99.90
4820;DHT22;2424;49.696;6.630;2022-08-01T15:48:46;25.90;99.90
4820;DHT22;2424;49.696;6.630;2022-08-01T15:54:09;25.60;99.90
4820;DHT22;2424;49.696;6.630;2022-08-01T15:59:31;25.50;99.90
4820;DHT22;2424;49.696;6.630;2022-08-01T16:04:54;25.50;99.90
4820;DHT22;2424;49.696;6.630;2022-08-01T16:10:17;25.40;99.90
4820;DHT22;2424;49.696;6.630;2022-08-01T16:15:39;25.40;99.90
4820;DHT22;2424;49.696;6.630;2022-08-01T16:21:03;25.40;99.90
4820;DHT22;2424;49.696;6.630;2022-08-01T16:26:25;25.30;99.90
4820;DHT22;2424;49.696;6.630;2022-08-01T16:31:47;25.20;99.90
4820;DHT22;2424;49.696;6.630;2022-08-01T16:37:11;25.20;99.90
4820;DHT22;2424;49.696;6.630;2022-08-01T16:42:33;25.10;99.90
4820;DHT22;2424;49.696;6.630;2022-08-01T16:47:55;24.90;99.90
4820;DHT22;2424;49.696;6.630;2022-08-01T16:53:19;24.90;99.90
4820;DHT22;2424;49.696;6.630;2022-08-01T16:58:41;24.90;99.90
4820;DHT22;2424;49.696;6.630;2022-08-01T17:04:03;24.90;99.90
4820;DHT22;2424;49.696;6.630;2022-08-01T17:09:27;24.90;99.90
4820;DHT22;2424;49.696;6.630;2022-08-01T17:14:49;24.90;99.90
4820;DHT22;2424;49.696;6.630;2022-08-01T17:20:11;25.00;99.90
4820;DHT22;2424;49.696;6.630;2022-08-01T17:25:35;24.80;99.90
4820;DHT22;2424;49.696;6.630;2022-08-01T17:30:57;24.90;99.90
4820;DHT22;2424;49.696;6.630;2022-08-01T17:36:19;25.10;99.90
4820;DHT22;2424;49.696;6.630;2022-08-01T17:41:43;24.90;99.90
4820;DHT22;2424;49.696;6.630;2022-08-01T17:47:05;24.90;99.90
4820;DHT22;2424;49.696;6.630;2022-08-01T17:52:27;24.80;99.90
4820;DHT22;2424;49.696;6.630;2022-08-01T17:57:50;24.90;99.90
4820;DHT22;2424;49.696;6.630;2022-08-01T18:03:12;24.80;99.90
4820;DHT22;2424;49.696;6.630;2022-08-01T18:08:37;24.70;99.90
4820;DHT22;2424;49.696;6.630;2022-08-01T18:14:02;24.60;99.90
4820;DHT22;2424;49.696;6.630;2022-08-01T18:19:25;24.70;99.90
4820;DHT22;2424;49.696;6.630;2022-08-01T18:24:46;24.60;99.90
4820;DHT22;2424;49.696;6.630;2022-08-01T18:30:10;24.50;99.90
4820;DHT22;2424;49.696;6.630;2022-08-01T18:35:32;24.50;99.90
4820;DHT22;2424;49.696;6.630;2022-08-01T18:40:55;24.50;99.90
4820;DHT22;2424;49.696;6.630;2022-08-01T18:46:18;24.50;99.90
4820;DHT22;2424;49.696;6.630;2022-08-01T18:51:40;24.30;99.90
4820;DHT22;2424;49.696;6.630;2022-08-01T18:57:03;24.20;99.90
4820;DHT22;2424;49.696;6.630;2022-08-01T19:02:26;24.10;99.90
4820;DHT22;2424;49.696;6.630;2022-08-01T19:07:48;23.90;99.90
4820;DHT22;2424;49.696;6.630;2022-08-01T19:13:10;23.90;99.90
4820;DHT22;2424;49.696;6.630;2022-08-01T19:18:34;23.90;99.90
4820;DHT22;2424;49.696;6.630;2022-08-01T19:23:56;23.70;99.90
4820;DHT22;2424;49.696;6.630;2022-08-01T19:29:37;23.70;99.90
4820;DHT22;2424;49.696;6.630;2022-08-01T19:35:04;23.50;99.90
4820;DHT22;2424;49.696;6.630;2022-08-01T19:40:26;23.50;99.90
4820;DHT22;2424;49.696;6.630;2022-08-01T19:45:49;23.40;99.90
4820;DHT22;2424;49.696;6.630;2022-08-01T19:51:15;23.30;99.90
4820;DHT22;2424;49.696;6.630;2022-08-01T19:56:40;23.30;99.90
4820;DHT22;2424;49.696;6.630;2022-08-01T20:02:05;23.30;99.90
4820;DHT22;2424;49.696;6.630;2022-08-01T20:07:28;23.20;99.90
4820;DHT22;2424;49.696;6.630;2022-08-01T20:12:52;23.10;99.90
4820;DHT22;2424;49.696;6.630;2022-08-01T20:18:17;23.00;99.90
4820;DHT22;2424;49.696;6.630;2022-08-01T20:23:42;22.80;99.90
4820;DHT22;2424;49.696;6.630;2022-08-01T20:29:05;22.70;99.90
4820;DHT22;2424;49.696;6.630;2022-08-01T20:34:27;22.60;99.90
4820;DHT22;2424;49.696;6.630;2022-08-01T20:39:52;22.50;99.90
4820;DHT22;2424;49.696;6.630;2022-08-01T20:45:17;22.30;99.90
4820;DHT22;2424;49.696;6.630;2022-08-01T20:50:40;22.10;99.90
4820;DHT22;2424;49.696;6.630;2022-08-01T20:56:28;22.00;99.90
4820;DHT22;2424;49.696;6.630;2022-08-01T21:01:57;21.80;99.90
4820;DHT22;2424;49.696;6.630;2022-08-01T21:07:24;21.80;99.90
4820;DHT22;2424;49.696;6.630;2022-08-01T21:12:53;21.70;99.90
4820;DHT22;2424;49.696;6.630;2022-08-01T21:18:21;21.50;99.90
4820;DHT22;2424;49.696;6.630;2022-08-01T21:23:52;21.40;99.90
4820;DHT22;2424;49.696;6.630;2022-08-01T21:29:17;21.30;99.90
4820;DHT22;2424;49.696;6.630;2022-08-01T21:34:44;21.30;99.90
4820;DHT22;2424;49.696;6.630;2022-08-01T21:40:09;21.10;99.90
4820;DHT22;2424;49.696;6.630;2022-08-01T21:45:32;20.80;99.90
4820;DHT22;2424;49.696;6.630;2022-08-01T21:50:57;20.70;99.90
4820;DHT22;2424;49.696;6.630;2022-08-01T21:56:25;20.70;99.90
4820;DHT22;2424;49.696;6.630;2022-08-01T22:02:02;20.70;99.90
4820;DHT22;2424;49.696;6.630;2022-08-01T22:07:25;20.60;99.90
4820;DHT22;2424;49.696;6.630;2022-08-01T22:12:48;20.50;99.90
4820;DHT22;2424;49.696;6.630;2022-08-01T22:18:11;20.40;99.90
4820;DHT22;2424;49.696;6.630;2022-08-01T22:23:34;20.30;99.90
4820;DHT22;2424;49.696;6.630;2022-08-01T22:28:58;20.20;99.90
4820;DHT22;2424;49.696;6.630;2022-08-01T22:34:22;20.10;99.90
4820;DHT22;2424;49.696;6.630;2022-08-01T22:39:46;20.00;99.90
4820;DHT22;2424;49.696;6.630;2022-08-01T22:45:10;19.90;99.90
4820;DHT22;2424;49.696;6.630;2022-08-01T22:50:37;19.90;99.90
4820;DHT22;2424;49.696;6.630;2022-08-01T22:56:01;19.80;99.90
4820;DHT22;2424;49.696;6.630;2022-08-01T23:01:27;19.80;99.90
4820;DHT22;2424;49.696;6.630;2022-08-01T23:06:53;19.60;99.90
4820;DHT22;2424;49.696;6.630;2022-08-01T23:12:18;19.50;99.90
4820;DHT22;2424;49.696;6.630;2022-08-01T23:17:41;19.40;99.90
4820;DHT22;2424;49.696;6.630;2022-08-01T23:23:06;19.40;99.90
4820;DHT22;2424;49.696;6.630;2022-08-01T23:28:28;19.30;99.90
4820;DHT22;2424;49.696;6.630;2022-08-01T23:33:50;19.20;99.90
4820;DHT22;2424;49.696;6.630;2022-08-01T23:39:14;19.20;99.90
4820;DHT22;2424;49.696;6.630;2022-08-01T23:44:36;19.10;99.90
4820;DHT22;2424;49.696;6.630;2022-08-01T23:49:58;18.90;99.90
4820;DHT22;2424;49.696;6.630;2022-08-01T23:55:22;18.90;99.90
